Time;durP1;ratioP1;P1;durP2;ratioP2;P2;SDS_P1;SDS_P2;PMS_P1;PMS_P2;Temp;Humidity;BMP_temperature;BMP_pressure;BME280_temperature;BME280_humidity;BME280_pressure;Samples;Min_cycle;Max_cycle;Signal;HPM_P1;HPM_P2
2022/01/14 00:00:48;;;;;;;21.17;5.63;;;;;;;6.18;100.00;103756.13;5069690;28;20115;-42
2022/01/14 00:03:16;;;;;;;19.35;5.35;;;;;;;6.19;100.00;103749.47;5070968;28;20514;-37
2022/01/14 00:05:45;;;;;;;18.08;5.40;;;;;;;6.20;100.00;103753.97;5071393;28;20036;-37
2022/01/14 00:08:13;;;;;;;22.40;5.68;;;;;;;6.20;100.00;103742.03;5068415;28;20049;-44
2022/01/14 00:10:47;;;;;;;18.50;5.55;;;;;;;6.18;100.00;103745.03;5071202;28;20132;-40
2022/01/14 00:13:38;;;;;;;18.80;5.38;;;;;;;6.18;100.00;103735.84;5070950;28;20044;-35
2022/01/14 00:16:03;;;;;;;12.10;4.25;;;;;;;6.17;100.00;103745.22;5056094;28;20033;-40
2022/01/14 00:18:31;;;;;;;14.65;4.35;;;;;;;6.19;100.00;103740.34;5070978;28;20552;-39
2022/01/14 00:21:01;;;;;;;18.77;4.88;;;;;;;6.19;100.00;103729.25;5070322;28;20060;-36
2022/01/14 00:23:36;;;;;;;17.55;4.70;;;;;;;6.18;100.00;103720.06;5071046;28;20060;-38
2022/01/14 00:31:49;;;;;;;20.50;5.03;;;;;;;6.16;100.00;103722.19;5071021;28;20494;-33
2022/01/14 00:34:17;;;;;;;20.48;4.70;;;;;;;6.15;100.00;103717.69;5069777;28;20559;-35
2022/01/14 00:36:46;;;;;;;17.48;4.97;;;;;;;6.17;100.00;103714.72;5069302;28;20044;-38
2022/01/14 00:39:15;;;;;;;15.98;4.75;;;;;;;6.16;100.00;103710.22;5070798;28;20744;-41
2022/01/14 00:41:44;;;;;;;20.23;4.50;;;;;;;6.16;100.00;103713.88;5070068;28;20124;-35
2022/01/14 00:44:13;;;;;;;16.25;4.88;;;;;;;6.17;100.00;103723.03;5070878;28;20052;-43
2022/01/14 00:46:43;;;;;;;17.60;4.90;;;;;;;6.15;100.00;103711.28;5070717;28;20067;-43
2022/01/14 00:49:12;;;;;;;14.05;4.78;;;;;;;6.15;100.00;103716.84;5066800;28;20333;-37
2022/01/14 00:51:40;;;;;;;17.08;4.78;;;;;;;6.14;100.00;103706.78;5071040;28;20045;-39
2022/01/14 00:54:10;;;;;;;20.13;6.07;;;;;;;6.13;100.00;103703.16;5070473;28;20051;-39
2022/01/14 00:56:48;;;;;;;20.33;5.50;;;;;;;6.13;100.00;103699.53;5070106;28;20052;-41
2022/01/14 00:59:17;;;;;;;20.40;5.68;;;;;;;6.13;100.00;103694.00;5070943;28;20398;-40
2022/01/14 01:01:48;;;;;;;16.15;4.40;;;;;;;6.12;100.00;103689.50;5071158;28;20055;-36
2022/01/14 01:04:18;;;;;;;17.67;5.50;;;;;;;6.10;100.00;103700.78;5069832;28;20082;-35
2022/01/14 01:06:46;;;;;;;18.88;5.57;;;;;;;6.09;100.00;103696.31;5071003;28;20041;-36
2022/01/14 01:09:16;;;;;;;17.15;5.90;;;;;;;6.10;100.00;103697.16;5070299;28;20060;-37
2022/01/14 01:11:50;;;;;;;20.30;5.65;;;;;;;6.12;100.00;103697.81;5069869;28;20041;-34
2022/01/14 01:14:23;;;;;;;20.55;6.15;;;;;;;6.11;100.00;103704.41;5073995;28;20395;-39
2022/01/14 01:16:50;;;;;;;20.10;6.15;;;;;;;6.11;100.00;103707.19;5073897;28;20137;-33
2022/01/14 01:19:18;;;;;;;15.90;5.32;;;;;;;6.11;100.00;103716.38;5073791;28;20528;-41
2022/01/14 01:21:46;;;;;;;20.17;6.05;;;;;;;6.09;100.00;103709.31;5074385;28;20052;-41
2022/01/14 01:24:16;;;;;;;16.65;5.93;;;;;;;6.09;100.00;103710.16;5073387;28;20048;-41
2022/01/14 01:26:44;;;;;;;17.10;6.38;;;;;;;6.09;100.00;103706.53;5063628;28;20045;-38
2022/01/14 01:29:32;;;;;;;19.40;6.75;;;;;;;6.09;100.00;103701.00;5073955;28;20048;-35
2022/01/14 01:32:00;;;;;;;19.85;5.75;;;;;;;6.08;100.00;103696.50;5063132;28;20402;-41
2022/01/14 01:34:28;;;;;;;21.15;6.40;;;;;;;6.08;100.00;103693.72;5073361;28;20501;-36
2022/01/14 01:36:58;;;;;;;20.80;5.95;;;;;;;6.07;100.00;103692.88;5073907;28;20485;-35
2022/01/14 01:39:30;;;;;;;22.20;6.47;;;;;;;6.07;100.00;103689.25;5071622;28;20054;-31
2022/01/14 01:42:00;;;;;;;16.63;6.20;;;;;;;6.06;100.00;103691.16;5073880;28;20080;-35
2022/01/14 01:44:29;;;;;;;21.27;6.00;;;;;;;6.08;100.00;103688.19;5073708;28;20040;-35
2022/01/14 01:46:57;;;;;;;19.30;6.80;;;;;;;6.07;100.00;103695.63;5072783;28;20041;-43
2022/01/14 01:49:28;;;;;;;17.60;6.22;;;;;;;6.08;100.00;103689.03;5073754;28;20045;-34
2022/01/14 01:51:56;;;;;;;21.20;6.60;;;;;;;6.08;100.00;103674.31;5072911;28;20071;-39
2022/01/14 01:54:26;;;;;;;17.23;6.28;;;;;;;6.09;100.00;103687.13;5073886;28;20090;-35
2022/01/14 01:56:55;;;;;;;22.40;7.55;;;;;;;6.08;100.00;103682.63;5071864;28;20099;-39
2022/01/14 01:59:27;;;;;;;22.50;7.45;;;;;;;6.07;100.00;103673.47;5072765;28;20051;-32
2022/01/14 02:01:58;;;;;;;13.73;6.35;;;;;;;6.08;100.00;103683.50;5073447;28;20045;-37
2022/01/14 02:04:26;;;;;;;17.30;6.35;;;;;;;6.08;100.00;103677.09;5073540;28;20049;-35
2022/01/14 02:06:55;;;;;;;20.73;7.30;;;;;;;6.08;100.00;103675.19;5072491;28;20052;-37
2022/01/14 02:09:23;;;;;;;17.60;7.18;;;;;;;6.07;100.00;103672.59;5073533;28;20040;-35
2022/01/14 02:11:51;;;;;;;21.17;7.15;;;;;;;6.07;100.00;103670.69;5073293;28;20135;-32
2022/01/14 02:14:41;;;;;;;21.30;7.40;;;;;;;6.08;100.00;103677.94;5072529;28;20067;-41
2022/01/14 02:17:29;;;;;;;18.38;7.13;;;;;;;6.07;100.00;103670.69;5073393;28;20422;-39
2022/01/14 02:22:49;;;;;;;21.02;7.32;;;;;;;6.09;100.00;103695.44;5073320;28;20048;-34
2022/01/14 02:25:27;;;;;;;18.88;7.22;;;;;;;6.12;100.00;103683.97;5072449;28;20044;-37
2022/01/14 02:27:57;;;;;;;20.05;6.53;;;;;;;6.16;100.00;103690.81;5070338;28;20052;-37
2022/01/14 02:30:25;;;;;;;20.45;7.22;;;;;;;6.21;100.00;103686.38;5073062;28;20052;-37
2022/01/14 02:32:53;;;;;;;18.85;6.78;;;;;;;6.26;100.00;103682.13;5072732;28;20048;-34
2022/01/14 02:35:23;;;;;;;19.58;7.00;;;;;;;6.29;100.00;103679.81;5054032;28;20081;-36
2022/01/14 02:37:51;;;;;;;16.42;6.75;;;;;;;6.31;100.00;103677.72;5072755;28;20048;-33
2022/01/14 02:40:20;;;;;;;22.42;7.20;;;;;;;6.33;100.00;103683.91;5072901;28;20421;-36
2022/01/14 02:42:49;;;;;;;23.23;7.90;;;;;;;6.36;100.00;103671.56;5070679;28;20406;-37
2022/01/14 02:45:17;;;;;;;22.45;7.38;;;;;;;6.37;100.00;103665.81;5072508;28;20056;-38
2022/01/14 02:47:46;;;;;;;21.50;7.78;;;;;;;6.38;100.00;103663.91;5072545;28;20044;-36
2022/01/14 02:50:18;;;;;;;15.50;6.80;;;;;;;6.39;100.00;103671.16;5071829;28;20060;-40
2022/01/14 02:52:57;;;;;;;20.63;7.07;;;;;;;6.38;100.00;103673.09;5072579;28;20051;-39
2022/01/14 02:55:29;;;;;;;17.52;6.97;;;;;;;6.39;100.00;103676.72;5071883;28;20048;-41
2022/01/14 02:57:59;;;;;;;16.85;6.55;;;;;;;6.39;100.00;103665.63;5071910;28;20063;-30
2022/01/14 03:00:31;;;;;;;16.88;7.32;;;;;;;6.40;100.00;103672.84;5072563;28;20059;-40
2022/01/14 03:03:01;;;;;;;15.70;6.57;;;;;;;6.40;100.00;103665.38;5071572;28;20480;-42
2022/01/14 03:05:30;;;;;;;15.82;6.65;;;;;;;6.43;100.00;103666.91;5072480;28;20045;-35
2022/01/14 03:08:00;;;;;;;20.23;6.97;;;;;;;6.43;100.00;103670.53;5071836;28;20052;-37
2022/01/14 03:10:27;;;;;;;11.98;5.50;;;;;;;6.43;100.00;103676.09;5071227;28;20525;-35
2022/01/14 03:12:55;;;;;;;17.52;6.47;;;;;;;6.45;100.00;103668.41;5071968;28;20052;-36
2022/01/14 03:15:23;;;;;;;17.15;6.95;;;;;;;6.47;100.00;103655.22;5061222;28;20044;-37
2022/01/14 03:17:51;;;;;;;22.10;7.18;;;;;;;6.49;100.00;103660.56;5070969;28;20519;-36
2022/01/14 03:20:43;;;;;;;21.40;7.10;;;;;;;6.49;100.00;103664.19;5071956;28;20041;-41
2022/01/14 03:23:14;;;;;;;13.48;5.80;;;;;;;6.49;100.00;103663.31;5071873;28;20102;-35
2022/01/14 03:25:51;;;;;;;16.45;6.50;;;;;;;6.48;100.00;103640.28;5060626;28;20044;-33
2022/01/14 03:28:21;;;;;;;15.77;6.18;;;;;;;6.51;100.00;103644.56;5071469;28;20143;-36
2022/01/14 03:30:50;;;;;;;19.88;6.28;;;;;;;6.52;100.00;103636.03;5071284;28;20063;-33
2022/01/14 03:33:18;;;;;;;17.10;6.65;;;;;;;6.52;100.00;103638.81;5071357;28;20048;-38
2022/01/14 03:35:46;;;;;;;16.55;5.30;;;;;;;6.53;100.00;103632.22;5071957;28;20486;-35
2022/01/14 03:38:15;;;;;;;12.23;5.38;;;;;;;6.54;100.00;103639.47;5070928;28;20050;-33
2022/01/14 03:40:43;;;;;;;17.05;5.63;;;;;;;6.55;100.00;103637.56;5071785;28;20041;-37
2022/01/14 03:43:11;;;;;;;18.63;6.65;;;;;;;6.55;100.00;103635.63;5071470;28;20059;-39
2022/01/14 03:45:39;;;;;;;14.32;5.63;;;;;;;6.57;100.00;103630.75;5070593;28;20052;-35
2022/01/14 03:48:08;;;;;;;15.85;5.57;;;;;;;6.56;100.00;103631.81;5071656;28;20044;-35
2022/01/14 03:50:36;;;;;;;12.32;4.93;;;;;;;6.59;100.00;103626.91;5071364;28;20067;-36
2022/01/14 03:53:05;;;;;;;20.23;5.35;;;;;;;6.61;100.00;103638.63;5070793;28;20051;-36
2022/01/14 03:55:38;;;;;;;15.00;5.03;;;;;;;6.60;100.00;103643.31;5071422;28;20048;-38
2022/01/14 03:58:06;;;;;;;15.73;5.70;;;;;;;6.61;100.00;103627.53;5053323;28;20056;-37
2022/01/14 04:00:34;;;;;;;16.40;5.68;;;;;;;6.62;100.00;103623.69;5070201;28;20044;-37
2022/01/14 04:03:02;;;;;;;17.10;5.55;;;;;;;6.63;100.00;103631.81;5071560;28;20052;-35
2022/01/14 04:05:30;;;;;;;15.68;5.30;;;;;;;6.63;100.00;103625.41;5070908;28;20048;-39
2022/01/14 04:07:58;;;;;;;17.48;5.43;;;;;;;6.63;100.00;103626.28;5071421;28;20045;-38
2022/01/14 04:10:26;;;;;;;14.65;5.20;;;;;;;6.64;100.00;103624.34;5070837;28;20470;-39
2022/01/14 04:13:00;;;;;;;13.60;5.80;;;;;;;6.64;100.00;103622.44;5070418;28;20048;-38
2022/01/14 04:15:37;;;;;;;17.05;5.05;;;;;;;6.64;100.00;103625.22;5071098;28;20045;-43
2022/01/14 04:18:07;;;;;;;15.52;5.47;;;;;;;6.65;100.00;103623.28;5071559;28;20052;-38
2022/01/14 04:20:36;;;;;;;15.70;5.55;;;;;;;6.66;100.00;103617.53;5070166;28;20037;-39
2022/01/14 04:23:05;;;;;;;11.48;5.47;;;;;;;6.66;100.00;103611.13;5071257;28;20056;-39
2022/01/14 04:25:33;;;;;;;23.65;5.97;;;;;;;6.66;100.00;103623.09;5070760;28;20079;-38
2022/01/14 04:28:04;;;;;;;14.75;5.65;;;;;;;6.67;100.00;103624.81;5070685;28;20052;-40
2022/01/14 04:30:32;;;;;;;12.55;5.30;;;;;;;6.65;100.00;103623.28;5070980;28;20374;-40
2022/01/14 04:32:59;;;;;;;12.35;5.13;;;;;;;6.64;100.00;103629.91;5070771;28;20044;-36
2022/01/14 04:35:28;;;;;;;13.23;5.00;;;;;;;6.64;100.00;103618.81;5068297;28;20040;-41
2022/01/14 04:37:55;;;;;;;14.40;5.55;;;;;;;6.63;100.00;103611.53;5070869;28;20044;-42
2022/01/14 04:40:24;;;;;;;15.25;4.90;;;;;;;6.62;100.00;103613.47;5070407;28;20044;-38
2022/01/14 04:42:53;;;;;;;14.07;5.97;;;;;;;6.63;100.00;103619.88;5070185;28;20452;-35
2022/01/14 04:45:41;;;;;;;16.10;5.35;;;;;;;6.62;100.00;103607.06;5071013;28;20052;-40
2022/01/14 04:48:12;;;;;;;14.98;5.38;;;;;;;6.60;100.00;103601.72;5069971;28;20060;-41
2022/01/14 04:50:40;;;;;;;16.23;6.45;;;;;;;6.60;100.00;103604.47;5074527;28;20056;-42
2022/01/14 04:53:10;;;;;;;15.90;6.43;;;;;;;6.58;100.00;103598.31;5075061;28;20047;-39
2022/01/14 04:55:38;;;;;;;14.45;5.68;;;;;;;6.59;100.00;103607.50;5073886;28;20040;-41
2022/01/14 04:58:06;;;;;;;14.35;6.03;;;;;;;6.57;100.00;103608.56;5074677;28;20041;-38
2022/01/14 05:00:38;;;;;;;17.40;5.47;;;;;;;6.57;100.00;103599.38;5074084;28;20052;-39
2022/01/14 05:03:06;;;;;;;13.45;6.43;;;;;;;6.55;100.00;103605.13;5055735;28;20052;-40
2022/01/14 05:05:38;;;;;;;15.77;6.88;;;;;;;6.55;100.00;103609.81;5074339;28;20080;-39
2022/01/14 05:08:09;;;;;;;15.27;6.03;;;;;;;6.52;100.00;103608.31;5074404;28;20044;-36
2022/01/14 05:10:50;;;;;;;19.30;7.72;;;;;;;6.52;100.00;103590.81;5070330;28;21257;-38
2022/01/14 05:13:17;;;;;;;14.18;6.50;;;;;;;6.52;100.00;103602.75;5073921;28;20439;-39
2022/01/14 05:15:46;;;;;;;14.63;5.68;;;;;;;6.53;100.00;103603.63;5073684;28;20528;-40
2022/01/14 05:18:14;;;;;;;16.60;6.80;;;;;;;6.53;100.00;103612.78;5073126;28;20040;-38
2022/01/14 05:20:42;;;;;;;13.10;6.05;;;;;;;6.53;100.00;103601.69;5073590;28;20053;-38
2022/01/14 05:23:10;;;;;;;15.38;6.00;;;;;;;6.53;100.00;103601.69;5072543;28;20421;-40
2022/01/14 05:25:38;;;;;;;15.13;6.55;;;;;;;6.53;100.00;103595.28;5073227;28;20497;-33
2022/01/14 05:28:05;;;;;;;13.98;6.28;;;;;;;6.54;100.00;103605.31;5072673;28;20045;-34
2022/01/14 05:30:33;;;;;;;14.40;6.07;;;;;;;6.54;100.00;103608.09;5072524;28;20048;-34
2022/01/14 05:33:02;;;;;;;14.38;6.57;;;;;;;6.55;100.00;103620.91;5073390;28;20389;-36
2022/01/14 05:35:30;;;;;;;10.43;4.82;;;;;;;6.55;100.00;103613.44;5073859;28;20515;-41
2022/01/14 05:37:58;;;;;;;17.75;6.07;;;;;;;6.55;100.00;103607.03;5072684;28;20052;-35
2022/01/14 05:40:27;;;;;;;14.32;5.95;;;;;;;6.56;100.00;103603.22;5073468;28;20139;-34
2022/01/14 05:42:55;;;;;;;14.30;6.15;;;;;;;6.56;100.00;103612.38;5073389;28;20033;-40
2022/01/14 05:45:23;;;;;;;15.63;6.13;;;;;;;6.55;100.00;103610.66;5062274;28;20056;-34
2022/01/14 05:47:51;;;;;;;13.00;5.95;;;;;;;6.55;100.00;103613.44;5073488;28;20119;-33
2022/01/14 05:50:23;;;;;;;11.43;5.63;;;;;;;6.55;100.00;103607.03;5072798;28;20440;-35
2022/01/14 05:52:51;;;;;;;15.50;6.28;;;;;;;6.53;100.00;103606.38;5072635;28;20040;-38
2022/01/14 05:55:21;;;;;;;11.45;5.32;;;;;;;6.52;100.00;103608.31;5073369;28;20053;-36
2022/01/14 05:57:48;;;;;;;17.45;5.75;;;;;;;6.54;100.00;103605.31;5073395;28;20040;-36
2022/01/14 06:00:18;;;;;;;15.40;6.28;;;;;;;6.55;100.00;103607.03;5070296;28;20084;-42
2022/01/14 06:02:47;;;;;;;14.80;6.43;;;;;;;6.56;100.00;103608.75;5073351;28;20041;-36
2022/01/14 06:05:15;;;;;;;15.30;5.95;;;;;;;6.57;100.00;103610.47;5072127;28;20437;-30
2022/01/14 06:07:45;;;;;;;14.82;5.95;;;;;;;6.56;100.00;103605.97;5073256;28;20508;-38
2022/01/14 06:10:12;;;;;;;14.15;5.45;;;;;;;6.57;100.00;103605.78;5073193;28;20051;-43
2022/01/14 06:12:40;;;;;;;17.80;5.63;;;;;;;6.59;100.00;103610.28;5072660;28;20237;-39
2022/01/14 06:15:09;;;;;;;11.25;5.03;;;;;;;6.61;100.00;103616.44;5073198;28;20044;-39
2022/01/14 06:17:36;;;;;;;12.68;4.93;;;;;;;6.61;100.00;103628.41;5072665;28;20120;-33
2022/01/14 06:20:05;;;;;;;15.35;5.40;;;;;;;6.63;100.00;103629.03;5072024;28;20044;-41
2022/01/14 06:22:33;;;;;;;13.80;5.15;;;;;;;6.64;100.00;103632.69;5073086;28;20048;-38
2022/01/14 06:25:02;;;;;;;15.25;5.07;;;;;;;6.65;100.00;103626.06;5072653;28;20040;-34
2022/01/14 06:27:32;;;;;;;14.82;4.95;;;;;;;6.65;100.00;103620.53;5072226;28;20049;-39
2022/01/14 06:30:00;;;;;;;16.98;5.80;;;;;;;6.65;100.00;103614.97;5072675;28;20053;-33
2022/01/14 06:32:28;;;;;;;14.63;5.38;;;;;;;6.65;100.00;103598.31;5072795;28;20057;-36
2022/01/14 06:34:55;;;;;;;24.90;5.72;;;;;;;6.66;100.00;103606.44;5071436;28;20039;-39
2022/01/14 06:37:23;;;;;;;14.07;5.40;;;;;;;6.67;100.00;103612.84;5072923;28;20082;-33
2022/01/14 06:39:52;;;;;;;14.85;4.68;;;;;;;6.68;100.00;103614.56;5072270;28;20044;-37
2022/01/14 06:42:23;;;;;;;17.70;5.22;;;;;;;6.68;100.00;103617.34;5072026;28;20520;-36
2022/01/14 06:44:51;;;;;;;14.30;4.80;;;;;;;6.67;100.00;103618.41;5072083;28;20055;-34
2022/01/14 06:47:19;;;;;;;13.30;4.75;;;;;;;6.65;100.00;103620.53;5071788;28;20052;-35
2022/01/14 06:49:46;;;;;;;13.25;4.70;;;;;;;6.64;100.00;103616.88;5072123;28;20041;-37
2022/01/14 06:52:14;;;;;;;8.65;4.18;;;;;;;6.64;100.00;103616.03;5072548;28;20055;-41
2022/01/14 06:54:42;;;;;;;11.52;3.90;;;;;;;6.64;100.00;103616.03;5071281;28;20486;-38
2022/01/14 06:57:10;;;;;;;12.20;4.60;;;;;;;6.65;100.00;103617.75;5071407;28;20036;-40
2022/01/14 06:59:39;;;;;;;18.92;5.25;;;;;;;6.66;100.00;103622.22;5072031;28;20047;-36
2022/01/14 07:02:07;;;;;;;10.85;4.22;;;;;;;6.66;100.00;103622.22;5071191;28;20435;-42
2022/01/14 07:04:35;;;;;;;13.75;5.40;;;;;;;6.66;100.00;103616.69;5072086;28;20409;-31
2022/01/14 07:07:03;;;;;;;12.88;5.03;;;;;;;6.65;100.00;103623.28;5072339;28;20426;-39
2022/01/14 07:09:34;;;;;;;11.10;4.32;;;;;;;6.63;100.00;103619.88;5071291;28;20501;-36
2022/01/14 07:12:02;;;;;;;13.73;4.10;;;;;;;6.60;100.00;103621.13;5071595;28;20517;-40
2022/01/14 07:14:30;;;;;;;9.77;4.05;;;;;;;6.63;100.00;103614.31;5071863;28;20037;-38
2022/01/14 07:16:59;;;;;;;14.27;4.30;;;;;;;6.64;100.00;103614.13;5070587;28;20489;-33
2022/01/14 07:19:27;;;;;;;10.88;3.83;;;;;;;6.65;100.00;103623.28;5071619;28;20491;-40
2022/01/14 07:21:55;;;;;;;12.18;3.95;;;;;;;6.65;100.00;103618.59;5071297;28;20436;-33
2022/01/14 07:24:22;;;;;;;10.63;3.53;;;;;;;6.66;100.00;103633.34;5070331;28;20055;-35
2022/01/14 07:26:51;;;;;;;10.68;3.45;;;;;;;6.65;100.00;103624.16;5071465;28;20052;-37
2022/01/14 07:29:18;;;;;;;9.02;3.40;;;;;;;6.66;100.00;103619.47;5071815;28;20055;-35
2022/01/14 07:31:46;;;;;;;12.48;3.88;;;;;;;6.67;100.00;103621.16;5070619;28;20048;-38
2022/01/14 07:34:15;;;;;;;13.13;3.58;;;;;;;6.67;100.00;103632.28;5071696;28;20461;-37
2022/01/14 07:36:43;;;;;;;12.05;3.78;;;;;;;6.68;100.00;103625.66;5070355;28;20051;-39
2022/01/14 07:39:10;;;;;;;15.10;4.10;;;;;;;6.68;100.00;103629.28;5067977;28;20043;-42
2022/01/14 07:41:38;;;;;;;10.50;3.38;;;;;;;6.69;100.00;103636.56;5070424;28;20044;-43
2022/01/14 07:44:06;;;;;;;10.45;3.28;;;;;;;6.71;100.00;103637.22;5070414;28;20044;-37
2022/01/14 07:46:35;;;;;;;10.23;3.60;;;;;;;6.72;100.00;103635.28;5070772;28;20041;-40
2022/01/14 07:49:03;;;;;;;12.68;3.80;;;;;;;6.71;100.00;103640.00;5067510;28;20076;-35
2022/01/14 07:51:33;;;;;;;15.65;3.85;;;;;;;6.72;100.00;103646.41;5069691;28;20057;-34
2022/01/14 07:54:05;;;;;;;9.88;3.15;;;;;;;6.74;100.00;103639.59;5070098;28;20040;-37
2022/01/14 07:56:35;;;;;;;11.32;3.58;;;;;;;6.73;100.00;103640.66;5070858;28;20072;-35
2022/01/14 07:59:03;;;;;;;12.82;3.80;;;;;;;6.73;100.00;103648.09;5069878;28;20060;-40
2022/01/14 08:01:33;;;;;;;10.05;3.40;;;;;;;6.73;100.00;103643.41;5070664;28;20040;-42
2022/01/14 08:04:00;;;;;;;8.93;3.20;;;;;;;6.74;100.00;103652.59;5070166;28;20106;-41
2022/01/14 08:06:31;;;;;;;10.63;3.33;;;;;;;6.75;100.00;103655.16;5070039;28;20052;-42
2022/01/14 08:09:01;;;;;;;11.73;3.38;;;;;;;6.75;100.00;103640.44;5069945;28;20494;-44
2022/01/14 08:11:29;;;;;;;11.68;3.40;;;;;;;6.76;100.00;103645.78;5070022;28;20482;-36
2022/01/14 08:13:56;;;;;;;16.00;3.83;;;;;;;6.76;100.00;103642.16;5069003;28;20052;-40
2022/01/14 08:16:24;;;;;;;11.77;3.38;;;;;;;6.77;100.00;103643.88;5070862;28;20057;-38
2022/01/14 08:18:52;;;;;;;14.77;3.78;;;;;;;6.78;100.00;103649.22;5070141;28;20037;-39
2022/01/14 08:21:20;;;;;;;12.52;3.85;;;;;;;6.78;100.00;103643.66;5071242;28;20045;-38
2022/01/14 08:23:48;;;;;;;11.52;3.38;;;;;;;6.78;100.00;103651.13;5069891;28;20044;-41
2022/01/14 08:26:17;;;;;;;12.27;3.35;;;;;;;6.77;100.00;103644.72;5070271;28;20045;-35
2022/01/14 08:28:45;;;;;;;11.60;3.38;;;;;;;6.78;100.00;103645.59;5069848;28;20048;-38
2022/01/14 08:31:15;;;;;;;11.73;3.35;;;;;;;6.79;100.00;103644.53;5070783;28;20452;-33
2022/01/14 08:33:44;;;;;;;9.57;3.20;;;;;;;6.78;100.00;103635.34;5069932;28;20055;-37
2022/01/14 08:36:12;;;;;;;10.25;3.33;;;;;;;6.78;100.00;103643.66;5070219;28;20049;-44
2022/01/14 08:38:40;;;;;;;10.55;2.88;;;;;;;6.78;100.00;103634.47;5070243;28;20056;-41
2022/01/14 08:41:07;;;;;;;9.05;2.88;;;;;;;6.78;100.00;103632.56;5069973;28;20101;-35
2022/01/14 08:43:36;;;;;;;8.68;2.85;;;;;;;6.81;100.00;103639.59;5070218;28;20394;-36
2022/01/14 08:46:04;;;;;;;9.52;2.83;;;;;;;6.81;100.00;103634.91;5069777;28;20456;-38
2022/01/14 08:48:33;;;;;;;4.18;2.30;;;;;;;6.83;100.00;103638.31;5069200;28;20053;-32
2022/01/14 08:51:02;;;;;;;8.50;2.50;;;;;;;6.87;100.00;103636.00;5070842;28;20125;-33
2022/01/14 08:53:30;;;;;;;12.63;2.97;;;;;;;6.89;100.00;103636.66;5070189;28;20048;-41
2022/01/14 08:55:58;;;;;;;9.70;2.80;;;;;;;6.91;100.00;103640.09;5069774;28;20051;-40
2022/01/14 08:58:26;;;;;;;10.95;2.78;;;;;;;6.93;100.00;103643.50;5070535;28;20051;-35
2022/01/14 09:00:56;;;;;;;6.72;2.00;;;;;;;6.95;100.00;103646.09;5069939;28;20049;-38
2022/01/14 09:03:24;;;;;;;8.40;2.60;;;;;;;6.97;100.00;103646.75;5070617;28;20067;-35
2022/01/14 09:05:52;;;;;;;5.15;1.80;;;;;;;6.97;100.00;103657.84;5070263;28;20072;-39
2022/01/14 09:08:19;;;;;;;10.55;2.25;;;;;;;6.99;100.00;103648.25;5068809;28;20055;-36
2022/01/14 09:10:47;;;;;;;7.95;2.00;;;;;;;6.97;100.00;103644.81;5070209;28;20114;-44
2022/01/14 09:13:17;;;;;;;8.00;1.65;;;;;;;6.99;100.00;103648.25;5070252;28;20048;-42
2022/01/14 09:15:45;;;;;;;9.10;1.65;;;;;;;7.01;100.00;103637.75;5069161;28;20485;-41
2022/01/14 09:18:14;;;;;;;7.65;2.03;;;;;;;7.04;100.00;103630.94;5070488;28;20413;-35
2022/01/14 09:20:42;;;;;;;6.40;1.98;;;;;;;7.07;100.00;103631.38;5069947;28;20524;-29
2022/01/14 09:23:15;;;;;;;6.93;1.77;;;;;;;7.12;100.00;103631.63;5069444;28;20064;-32
2022/01/14 09:25:43;;;;;;;5.78;1.60;;;;;;;7.19;100.00;103640.00;5070325;28;20040;-36
2022/01/14 09:28:11;;;;;;;7.15;1.55;;;;;;;7.23;100.00;103642.13;5070319;28;20058;-36
2022/01/14 09:30:38;;;;;;;5.13;1.73;;;;;;;7.29;100.00;103639.56;5069181;28;20517;-33
2022/01/14 09:33:07;;;;;;;8.25;1.60;;;;;;;7.32;100.00;103644.72;5070992;28;20045;-35
2022/01/14 09:35:37;;;;;;;9.18;1.60;;;;;;;7.35;100.00;103635.97;5073579;28;20044;-35
2022/01/14 09:38:06;;;;;;;9.02;1.52;;;;;;;7.37;100.00;103650.50;5061834;28;20863;-35
2022/01/14 09:40:34;;;;;;;5.72;1.73;;;;;;;7.39;100.00;103645.59;5073022;28;20040;-37
2022/01/14 09:43:01;;;;;;;7.45;1.60;;;;;;;7.40;100.00;103642.59;5073583;28;20052;-38
2022/01/14 09:45:51;;;;;;;7.30;1.70;;;;;;;7.44;100.00;103648.59;5073341;28;20040;-34
2022/01/14 09:48:19;;;;;;;7.28;1.55;;;;;;;7.45;100.00;103647.53;5073629;28;20040;-32
2022/01/14 09:50:48;;;;;;;6.32;1.30;;;;;;;7.47;100.00;103646.25;5072722;28;20409;-35
2022/01/14 09:53:16;;;;;;;9.20;1.83;;;;;;;7.49;100.00;103646.03;5073453;28;20056;-38
2022/01/14 09:55:44;;;;;;;4.10;1.08;;;;;;;7.53;100.00;103652.91;5073489;28;20119;-32
2022/01/14 09:58:12;;;;;;;5.75;1.55;;;;;;;7.56;100.00;103653.34;5071769;28;20419;-38
2022/01/14 10:00:40;;;;;;;9.38;1.67;;;;;;;7.62;100.00;103654.38;5073297;28;20541;-37
2022/01/14 10:03:22;;;;;;;8.45;1.77;;;;;;;7.66;100.00;103655.69;5073314;28;20074;-33
2022/01/14 10:05:55;;;;;;;9.13;1.60;;;;;;;7.67;100.00;103667.66;5072585;28;20040;-40
2022/01/14 10:08:26;;;;;;;2.95;1.08;;;;;;;7.68;100.00;103652.69;5072400;28;20502;-40
2022/01/14 10:10:56;;;;;;;7.45;1.50;;;;;;;7.70;100.00;103661.69;5073195;28;20181;-38
2022/01/14 10:13:28;;;;;;;8.77;1.75;;;;;;;7.72;100.00;103667.88;5070366;28;20063;-41
2022/01/14 10:16:01;;;;;;;8.13;1.55;;;;;;;7.73;100.00;103676.03;5072512;28;20059;-39
2022/01/14 10:18:30;;;;;;;7.38;1.60;;;;;;;7.73;100.00;103676.03;5072300;28;20558;-41
2022/01/14 10:21:06;;;;;;;6.78;1.30;;;;;;;7.74;100.00;103679.66;5072982;28;20490;-32
2022/01/14 10:23:44;;;;;;;8.88;1.38;;;;;;;7.74;100.00;103677.72;5072403;28;21043;-40
2022/01/14 10:26:12;;;;;;;7.72;1.52;;;;;;;7.74;100.00;103682.44;5054897;28;20500;-41
2022/01/14 10:28:43;;;;;;;5.32;1.05;;;;;;;7.74;100.00;103680.50;5072090;28;20051;-39
2022/01/14 10:31:12;;;;;;;7.30;1.20;;;;;;;7.75;100.00;103673.88;5066549;28;20045;-37
2022/01/14 10:33:41;;;;;;;3.00;0.68;;;;;;;7.81;100.00;103675.78;5067959;28;20049;-34
2022/01/14 10:36:20;;;;;;;5.70;1.65;;;;;;;7.87;100.00;103676.88;5071693;28;20056;-31
2022/01/14 10:38:48;;;;;;;4.43;0.80;;;;;;;7.88;100.00;103675.81;5068371;28;20486;-36
2022/01/14 10:41:18;;;;;;;7.32;1.30;;;;;;;7.91;100.00;103681.81;5070675;28;20078;-38
2022/01/14 10:43:46;;;;;;;7.25;1.10;;;;;;;7.93;100.00;103685.25;5071392;28;20417;-38
2022/01/14 10:46:13;;;;;;;8.20;1.40;;;;;;;7.97;100.00;103690.38;5070815;28;20366;-38
2022/01/14 10:48:43;;;;;;;5.43;0.98;;;;;;;7.99;100.00;103680.75;5070997;28;20043;-38
2022/01/14 10:51:14;;;;;;;3.92;0.90;;;;;;;8.03;100.00;103684.81;5071562;28;20067;-37
2022/01/14 10:53:44;;;;;;;4.38;1.15;;;;;;;8.05;100.00;103682.66;5070455;28;20087;-32
2022/01/14 10:56:14;;;;;;;6.38;1.20;;;;;;;8.08;100.00;103679.47;5071558;28;20075;-34
2022/01/14 10:58:43;;;;;;;5.53;1.30;;;;;;;8.08;100.00;103685.03;5071167;28;20054;-34
2022/01/14 11:01:15;;;;;;;4.65;1.05;;;;;;;8.10;100.00;103682.88;5070527;28;20514;-39
2022/01/14 11:03:45;;;;;;;7.82;1.40;;;;;;;8.14;100.00;103686.09;5071296;28;20067;-36
2022/01/14 11:06:23;;;;;;;5.32;1.15;;;;;;;8.16;100.00;103698.72;5071353;28;20041;-40
2022/01/14 11:08:57;;;;;;;4.53;1.10;;;;;;;8.17;100.00;103697.66;5069723;28;20037;-32
2022/01/14 11:11:25;;;;;;;4.97;1.20;;;;;;;8.19;100.00;103697.47;5070541;28;20052;-36
2022/01/14 11:13:53;;;;;;;9.23;1.60;;;;;;;8.21;100.00;103696.13;5070976;28;20090;-37
2022/01/14 11:16:21;;;;;;;7.50;1.30;;;;;;;8.22;100.00;103688.66;5070379;28;20072;-33
2022/01/14 11:18:49;;;;;;;4.53;0.80;;;;;;;8.23;100.00;103676.47;5070824;28;20543;-36
2022/01/14 11:24:05;;;;;;;8.25;1.40;;;;;;;8.26;100.00;103674.09;5070573;28;20052;-35
2022/01/14 11:26:36;;;;;;;8.25;1.65;;;;;;;8.25;100.00;103682.66;5071316;28;20067;-35
2022/01/14 11:29:08;;;;;;;4.82;1.10;;;;;;;8.24;100.00;103667.91;5059223;28;20045;-32
2022/01/14 11:31:37;;;;;;;5.07;1.23;;;;;;;8.25;100.00;103663.19;4174273;28;10000922;-41
2022/01/14 11:34:07;;;;;;;5.65;1.30;;;;;;;8.29;100.00;103664.47;5030883;28;20463;-37
2022/01/14 11:36:52;;;;;;;6.28;1.30;;;;;;;8.34;100.00;103655.53;5024194;28;20049;-35
2022/01/14 11:39:23;;;;;;;8.45;1.42;;;;;;;8.37;100.00;103658.75;4139112;28;10000983;-32
2022/01/14 11:41:53;;;;;;;6.70;1.30;;;;;;;8.41;100.00;103662.78;5005585;28;20038;-42